createdAt,value
2022-09-12T00:01:19.386Z,2.65
2022-09-12T00:03:46.295Z,2.83
2022-09-12T00:06:22.858Z,2.47
2022-09-12T00:08:53.220Z,2.35
2022-09-12T00:11:22.209Z,2.67
2022-09-12T00:13:48.936Z,2.15
2022-09-12T00:16:21.554Z,2.80
2022-09-12T00:18:50.515Z,2.25
2022-09-12T00:21:18.770Z,2.30
2022-09-12T00:23:48.145Z,2.83
2022-09-12T00:26:15.110Z,2.35
2022-09-12T00:28:47.404Z,2.72
2022-09-12T00:31:19.287Z,2.50
2022-09-12T00:33:45.900Z,2.28
2022-09-12T00:36:18.929Z,2.17
2022-09-12T00:38:48.497Z,2.22
2022-09-12T00:41:24.219Z,2.47
2022-09-12T00:43:56.981Z,2.70
2022-09-12T00:46:36.365Z,2.45
2022-09-12T00:49:15.996Z,2.50
2022-09-12T00:51:48.730Z,2.75
2022-09-12T00:54:23.628Z,2.42
2022-09-12T00:56:55.002Z,2.67
2022-09-12T00:59:27.603Z,3.33
2022-09-12T01:01:57.081Z,2.90
2022-09-12T01:04:30.846Z,2.75
2022-09-12T01:06:59.997Z,2.50
2022-09-12T01:09:26.714Z,3.42
2022-09-12T01:11:53.497Z,2.65
2022-09-12T01:14:22.534Z,2.40
2022-09-12T01:16:51.787Z,2.55
2022-09-12T01:19:48.657Z,3.00
2022-09-12T01:22:47.573Z,2.42
2022-09-12T01:25:51.588Z,2.88
2022-09-12T01:28:44.720Z,2.53
2022-09-12T01:31:34.114Z,2.90
2022-09-12T01:34:33.222Z,2.65
2022-09-12T01:37:17.513Z,2.42
2022-09-12T01:39:47.027Z,2.28
2022-09-12T01:42:33.570Z,2.70
2022-09-12T01:45:16.421Z,2.58
2022-09-12T01:47:58.790Z,2.13
2022-09-12T01:50:30.068Z,2.67
2022-09-12T01:53:07.023Z,2.45
2022-09-12T01:55:43.185Z,2.70
2022-09-12T01:58:14.583Z,2.90
2022-09-12T02:00:53.057Z,2.78
2022-09-12T02:03:26.755Z,2.50
2022-09-12T02:06:01.022Z,1.95
2022-09-12T02:08:40.691Z,2.85
2022-09-12T02:11:11.863Z,2.30
2022-09-12T02:13:59.011Z,2.80
2022-09-12T02:16:40.254Z,2.90
2022-09-12T02:19:18.023Z,2.60
2022-09-12T02:21:55.174Z,2.83
2022-09-12T02:24:24.877Z,2.85
2022-09-12T02:26:56.681Z,2.40
2022-09-12T02:29:25.578Z,2.20
2022-09-12T02:32:01.738Z,2.50
2022-09-12T02:34:53.530Z,2.55
2022-09-12T02:37:41.086Z,2.45
2022-09-12T02:40:08.921Z,2.70
2022-09-12T02:42:36.977Z,2.30
2022-09-12T02:45:04.056Z,2.72
2022-09-12T02:47:58.558Z,2.63
2022-09-12T02:50:27.927Z,2.42
2022-09-12T02:53:03.780Z,2.10
2022-09-12T02:55:34.745Z,2.70
2022-09-12T02:58:07.698Z,2.50
2022-09-12T03:00:37.270Z,2.50
2022-09-12T03:03:24.100Z,2.05
2022-09-12T03:05:56.950Z,2.00
2022-09-12T03:09:00.283Z,2.10
2022-09-12T03:11:47.826Z,2.22
2022-09-12T03:14:42.452Z,2.20
2022-09-12T03:17:24.421Z,1.95
2022-09-12T03:19:50.817Z,2.22
2022-09-12T03:22:32.649Z,2.20
2022-09-12T03:25:34.610Z,2.45
2022-09-12T03:28:09.113Z,2.60
2022-09-12T03:30:40.629Z,2.22
2022-09-12T03:33:20.853Z,2.10
2022-09-12T03:35:50.857Z,1.90
2022-09-12T03:38:17.610Z,2.60
2022-09-12T03:40:47.215Z,2.53
2022-09-12T03:43:15.867Z,3.10
2022-09-12T03:45:42.426Z,2.33
2022-09-12T03:48:14.410Z,2.10
2022-09-12T03:50:42.939Z,2.28
2022-09-12T03:53:15.285Z,2.20
2022-09-12T03:55:50.526Z,2.05
2022-09-12T03:58:17.025Z,2.58
2022-09-12T04:00:44.946Z,2.20
2022-09-12T04:03:13.787Z,2.05
2022-09-12T04:05:40.361Z,2.20
2022-09-12T04:08:09.278Z,1.75
2022-09-12T04:10:35.725Z,2.00
2022-09-12T04:13:06.554Z,1.98
2022-09-12T04:15:33.038Z,1.60
2022-09-12T04:18:03.642Z,2.47
2022-09-12T04:20:32.107Z,2.20
2022-09-12T04:22:58.555Z,2.13
2022-09-12T04:25:25.096Z,2.20
2022-09-12T04:27:51.589Z,1.63
2022-09-12T04:30:18.218Z,1.92
2022-09-12T04:32:44.672Z,1.83
2022-09-12T04:35:14.002Z,2.03
2022-09-12T04:37:40.470Z,2.00
2022-09-12T04:40:09.792Z,1.95
2022-09-12T04:42:41.195Z,1.70
2022-09-12T04:45:10.183Z,2.00
2022-09-12T04:47:38.970Z,1.80
2022-09-12T04:50:05.890Z,1.83
2022-09-12T04:52:34.721Z,2.08
2022-09-12T04:55:01.171Z,2.42
2022-09-12T04:57:29.955Z,2.25
2022-09-12T04:59:56.402Z,2.05
2022-09-12T05:02:25.333Z,2.47
2022-09-12T05:04:52.581Z,1.70
2022-09-12T05:07:19.432Z,2.35
2022-09-12T05:09:50.332Z,2.25
2022-09-12T05:12:16.817Z,2.38
2022-09-12T05:14:45.339Z,2.15
2022-09-12T05:17:11.846Z,2.22
2022-09-12T05:19:38.586Z,2.03
2022-09-12T05:22:06.599Z,2.22
2022-09-12T05:24:39.399Z,2.35
2022-09-12T05:27:05.851Z,2.35
2022-09-12T05:29:34.833Z,2.67
2022-09-12T05:32:01.990Z,2.72
2022-09-12T05:34:28.493Z,2.47
2022-09-12T05:36:54.950Z,2.58
2022-09-12T05:39:21.445Z,3.08
2022-09-12T05:41:52.786Z,3.42
2022-09-12T05:44:19.962Z,3.75
2022-09-12T05:46:51.204Z,4.25
2022-09-12T05:49:21.397Z,3.88
2022-09-12T05:51:52.914Z,3.90
2022-09-12T05:54:21.159Z,4.03
2022-09-12T05:56:48.794Z,4.78
2022-09-12T05:59:23.942Z,4.03
2022-09-12T06:01:52.544Z,4.40
2022-09-12T06:04:21.456Z,4.10
2022-09-12T06:06:48.673Z,4.63
2022-09-12T06:09:18.765Z,5.20
2022-09-12T06:11:46.427Z,5.07
2022-09-12T06:14:16.645Z,3.88
2022-09-12T06:16:43.333Z,4.22
2022-09-12T06:19:20.035Z,4.47
2022-09-12T06:21:49.350Z,4.35
2022-09-12T06:24:17.537Z,4.32
2022-09-12T06:26:44.355Z,4.70
2022-09-12T06:29:19.229Z,4.78
2022-09-12T06:31:48.263Z,4.47
2022-09-12T06:34:16.156Z,3.88
2022-09-12T06:36:45.160Z,4.30
2022-09-12T06:39:14.225Z,4.15
2022-09-12T06:41:44.405Z,4.38
2022-09-12T06:44:15.893Z,4.65
2022-09-12T06:46:42.539Z,4.45
2022-09-12T06:49:09.016Z,4.32
2022-09-12T06:51:38.394Z,4.38
2022-09-12T06:54:05.352Z,4.30
2022-09-12T06:56:32.161Z,4.70
2022-09-12T06:58:59.593Z,5.30
2022-09-12T07:01:31.364Z,4.25
2022-09-12T07:04:03.017Z,5.22
2022-09-12T07:06:34.951Z,4.32
2022-09-12T07:09:04.121Z,3.58
2022-09-12T07:11:35.336Z,4.43
2022-09-12T07:14:06.585Z,3.78
2022-09-12T07:16:35.455Z,4.88
2022-09-12T07:19:03.991Z,4.32
2022-09-12T07:21:31.288Z,4.82
2022-09-12T07:23:58.407Z,5.20
2022-09-12T07:26:29.068Z,4.85
2022-09-12T07:29:12.756Z,5.80
2022-09-12T07:31:44.955Z,5.38
2022-09-12T07:34:17.379Z,2.97
2022-09-12T07:36:46.345Z,6.57
2022-09-12T07:39:15.285Z,4.65
2022-09-12T07:41:44.410Z,2.95
2022-09-12T07:44:10.905Z,4.57
2022-09-12T07:46:38.292Z,4.78
2022-09-12T07:49:04.833Z,5.60
2022-09-12T07:51:31.878Z,4.82
2022-09-12T07:53:58.678Z,5.55
2022-09-12T07:56:30.105Z,5.28
2022-09-12T08:01:28.351Z,4.07
2022-09-12T08:04:01.659Z,4.28
2022-09-12T08:06:32.011Z,4.63
2022-09-12T08:08:59.734Z,2.75
2022-09-12T08:11:28.225Z,3.28
2022-09-12T08:13:58.157Z,3.50
2022-09-12T08:16:27.987Z,3.20
2022-09-12T08:18:54.618Z,3.03
2022-09-12T08:21:32.724Z,2.10
2022-09-12T08:24:02.101Z,3.03
2022-09-12T08:26:28.942Z,3.17
2022-09-12T08:28:55.708Z,2.70
2022-09-12T08:31:26.714Z,2.60
2022-09-12T08:33:56.321Z,3.47
2022-09-12T08:36:27.751Z,1.85
2022-09-12T08:38:59.977Z,2.15
2022-09-12T08:41:30.281Z,2.25
2022-09-12T08:44:21.737Z,2.05
2022-09-12T08:47:26.646Z,2.90
2022-09-12T08:50:08.763Z,2.70
2022-09-12T08:52:51.851Z,2.67
2022-09-12T08:55:55.423Z,2.47
2022-09-12T08:58:27.907Z,2.42
2022-09-12T09:01:19.052Z,3.17
2022-09-12T09:03:57.109Z,2.55
2022-09-12T09:06:31.798Z,2.60
2022-09-12T09:09:22.829Z,3.28
2022-09-12T09:12:19.638Z,2.70
2022-09-12T09:15:10.235Z,2.40
2022-09-12T09:17:48.109Z,3.42
2022-09-12T09:20:29.610Z,1.60
2022-09-12T09:25:53.696Z,2.95
2022-09-12T09:28:22.615Z,2.30
2022-09-12T09:30:49.954Z,3.20
2022-09-12T09:33:26.294Z,2.35
2022-09-12T09:36:17.105Z,2.05
2022-09-12T09:39:08.982Z,2.40
2022-09-12T09:42:13.292Z,2.00
2022-09-12T09:44:39.978Z,1.90
2022-09-12T09:47:13.149Z,2.55
2022-09-12T09:49:39.765Z,2.35
2022-09-12T09:52:15.405Z,1.85
2022-09-12T09:54:50.162Z,1.90
2022-09-12T09:57:35.071Z,2.30
2022-09-12T10:00:27.095Z,1.65
2022-09-12T10:03:08.192Z,1.30
2022-09-12T10:05:46.944Z,1.23
2022-09-12T10:08:28.662Z,1.42
2022-09-12T10:10:58.269Z,1.92
2022-09-12T10:13:35.086Z,1.25
2022-09-12T10:18:52.811Z,0.95
2022-09-12T10:21:32.292Z,1.33
2022-09-12T10:24:23.125Z,1.25
2022-09-12T10:27:05.770Z,0.88
2022-09-12T10:29:36.096Z,0.88
2022-09-12T10:32:06.657Z,1.40
2022-09-12T10:34:44.993Z,1.50
2022-09-12T10:37:23.274Z,1.88
2022-09-12T10:39:53.942Z,1.48
2022-09-12T10:42:41.536Z,1.52
2022-09-12T10:45:32.727Z,2.28
2022-09-12T10:48:06.850Z,1.50
2022-09-12T10:50:42.311Z,1.80
2022-09-12T10:53:20.367Z,1.58
2022-09-12T10:56:19.310Z,1.52
2022-09-12T10:58:54.944Z,1.85
2022-09-12T11:01:41.948Z,1.67
2022-09-12T11:04:30.220Z,1.38
2022-09-12T11:07:39.457Z,2.10
2022-09-12T11:10:41.456Z,1.50
2022-09-12T11:13:59.186Z,1.88
2022-09-12T11:17:02.960Z,1.00
2022-09-12T11:20:04.024Z,1.77
2022-09-12T11:23:18.686Z,3.63
2022-09-12T11:26:18.993Z,1.90
2022-09-12T11:29:35.559Z,2.10
2022-09-12T11:32:37.061Z,2.13
2022-09-12T11:35:27.433Z,1.38
2022-09-12T11:38:53.617Z,1.80
2022-09-12T11:41:48.303Z,1.65
2022-09-12T11:44:40.255Z,1.60
2022-09-12T11:47:29.621Z,1.50
2022-09-12T11:50:26.748Z,1.30
2022-09-12T11:53:22.743Z,1.50
2022-09-12T11:56:17.696Z,1.90
2022-09-12T11:59:17.667Z,1.55
2022-09-12T12:02:12.640Z,1.80
2022-09-12T12:05:15.968Z,1.60
2022-09-12T12:08:06.293Z,2.20
2022-09-12T12:11:01.072Z,1.40
2022-09-12T12:13:59.058Z,2.08
2022-09-12T12:16:49.513Z,1.30
2022-09-12T12:19:37.949Z,1.75
2022-09-12T12:22:25.832Z,0.95
2022-09-12T12:25:12.673Z,2.00
2022-09-12T12:28:02.202Z,1.52
2022-09-12T12:30:57.456Z,2.00
2022-09-12T12:33:44.269Z,1.60
2022-09-12T12:36:35.548Z,1.52
2022-09-12T12:39:33.895Z,1.50
2022-09-12T12:42:35.663Z,1.52
2022-09-12T12:45:22.431Z,1.50
2022-09-12T12:48:17.106Z,0.85
2022-09-12T12:51:27.811Z,1.80
2022-09-12T12:57:12.743Z,1.58
2022-09-12T13:00:08.683Z,1.40
2022-09-12T13:03:06.881Z,1.33
2022-09-12T13:06:05.395Z,1.92
2022-09-12T13:09:04.686Z,2.00
2022-09-12T13:12:04.013Z,1.63
2022-09-12T13:14:51.418Z,1.58
2022-09-12T13:17:42.183Z,1.08
2022-09-12T13:20:33.851Z,1.48
2022-09-12T13:23:30.119Z,1.77
2022-09-12T13:26:32.615Z,1.33
2022-09-12T13:29:24.687Z,1.20
2022-09-12T13:32:17.958Z,1.05
2022-09-12T13:35:19.545Z,1.88
2022-09-12T13:38:18.548Z,1.50
2022-09-12T13:41:23.847Z,1.20
2022-09-12T13:44:15.479Z,1.45
2022-09-12T13:47:03.500Z,1.17
2022-09-12T13:49:52.580Z,1.10
2022-09-12T13:52:45.745Z,1.27
2022-09-12T13:55:39.537Z,1.10
2022-09-12T13:58:35.380Z,1.38
2022-09-12T14:01:24.022Z,1.38
2022-09-12T14:04:41.455Z,1.98
2022-09-12T14:07:28.398Z,1.10
2022-09-12T14:10:21.608Z,1.17
2022-09-12T14:13:17.824Z,1.23
2022-09-12T14:16:09.827Z,1.45
2022-09-12T14:18:57.427Z,1.33
2022-09-12T14:21:44.521Z,1.23
2022-09-12T14:24:33.459Z,1.42
2022-09-12T14:27:38.200Z,1.35
2022-09-12T14:30:31.854Z,1.10
2022-09-12T14:33:20.878Z,1.20
2022-09-12T14:36:18.155Z,1.55
2022-09-12T14:39:09.707Z,1.38
2022-09-12T14:42:19.826Z,1.05
2022-09-12T14:45:17.135Z,1.45
2022-09-12T14:48:06.008Z,1.17
2022-09-12T14:50:55.911Z,1.33
2022-09-12T14:53:48.886Z,1.48
2022-09-12T14:56:57.986Z,1.73
2022-09-12T14:59:44.845Z,1.23
2022-09-12T15:02:31.874Z,1.40
2022-09-12T15:05:10.629Z,1.35
2022-09-12T15:07:48.062Z,0.77
2022-09-12T15:10:36.862Z,1.00
2022-09-12T15:13:09.585Z,1.33
2022-09-12T15:15:40.663Z,1.85
2022-09-12T15:18:09.598Z,1.88
2022-09-12T15:20:38.853Z,1.25
2022-09-12T15:23:13.133Z,0.55
2022-09-12T15:25:41.693Z,0.90
2022-09-12T15:28:20.781Z,1.50
2022-09-12T15:30:54.750Z,1.00
2022-09-12T15:33:24.083Z,1.05
2022-09-12T15:35:55.294Z,1.92
2022-09-12T15:38:26.563Z,1.42
2022-09-12T15:40:58.086Z,1.70
2022-09-12T15:43:26.860Z,1.45
2022-09-12T15:45:59.219Z,1.38
2022-09-12T15:50:55.707Z,1.45
2022-09-12T15:53:22.154Z,1.52
2022-09-12T15:55:48.643Z,1.42
2022-09-12T15:58:19.419Z,1.25
2022-09-12T16:00:45.917Z,1.40
2022-09-12T16:03:23.550Z,1.58
2022-09-12T16:05:55.103Z,1.63
2022-09-12T16:08:24.252Z,0.40
2022-09-12T16:10:57.034Z,0.87
2022-09-12T16:13:24.329Z,1.85
2022-09-12T16:15:59.837Z,0.77
2022-09-12T16:18:27.256Z,0.47
2022-09-12T16:20:57.100Z,2.08
2022-09-12T16:23:24.200Z,1.67
2022-09-12T16:26:05.552Z,1.35
2022-09-12T16:28:33.300Z,1.13
2022-09-12T16:31:02.101Z,1.80
2022-09-12T16:33:31.939Z,0.77
2022-09-12T16:36:10.283Z,1.23
2022-09-12T16:38:44.477Z,0.95
2022-09-12T16:41:14.539Z,1.42
2022-09-12T16:43:41.096Z,1.58
2022-09-12T16:46:10.067Z,1.50
2022-09-12T16:48:37.925Z,1.42
2022-09-12T16:51:07.244Z,0.90
2022-09-12T16:53:35.211Z,1.63
2022-09-12T16:56:01.802Z,1.52
2022-09-12T16:58:31.508Z,1.50
2022-09-12T17:01:04.132Z,1.23
2022-09-12T17:03:31.469Z,1.35
2022-09-12T17:06:18.316Z,1.40
2022-09-12T17:08:51.650Z,1.27
2022-09-12T17:11:23.872Z,2.13
2022-09-12T17:14:06.071Z,1.65
2022-09-12T17:19:03.570Z,1.40
2022-09-12T17:21:30.159Z,2.08
2022-09-12T17:23:56.758Z,2.40
2022-09-12T17:26:23.218Z,2.13
2022-09-12T17:28:51.982Z,1.60
2022-09-12T17:31:23.455Z,2.13
2022-09-12T17:33:50.006Z,2.00
2022-09-12T17:36:18.026Z,1.95
2022-09-12T17:38:46.000Z,1.52
2022-09-12T17:41:17.705Z,1.98
2022-09-12T17:43:54.234Z,2.50
2022-09-12T17:46:22.093Z,2.15
2022-09-12T17:48:56.321Z,1.75
2022-09-12T17:51:26.562Z,1.70
2022-09-12T17:54:05.451Z,1.75
2022-09-12T17:56:37.010Z,1.90
2022-09-12T17:59:07.337Z,1.60
2022-09-12T18:01:52.755Z,2.08
2022-09-12T18:04:20.032Z,2.20
2022-09-12T18:06:50.795Z,2.03
2022-09-12T18:09:19.455Z,2.22
2022-09-12T18:11:49.043Z,2.20
2022-09-12T18:14:18.501Z,1.90
2022-09-12T18:16:45.749Z,1.75
2022-09-12T18:19:12.534Z,2.53
2022-09-12T18:21:38.987Z,2.20
2022-09-12T18:24:06.112Z,2.00
2022-09-12T18:26:32.986Z,1.80
2022-09-12T18:28:59.544Z,0.43
2022-09-12T18:31:32.540Z,1.80
2022-09-12T18:34:02.448Z,2.13
2022-09-12T18:36:29.689Z,2.22
2022-09-12T18:39:02.131Z,1.73
2022-09-12T18:41:30.886Z,1.85
2022-09-12T18:43:59.640Z,1.88
2022-09-12T18:46:30.673Z,1.85
2022-09-12T18:48:57.939Z,2.53
2022-09-12T18:51:34.858Z,1.90
2022-09-12T18:54:12.461Z,2.20
2022-09-12T18:56:45.481Z,1.95
2022-09-12T18:59:17.736Z,2.10
2022-09-12T19:01:47.158Z,1.80
2022-09-12T19:04:19.333Z,2.03
2022-09-12T19:06:48.192Z,2.22
2022-09-12T19:09:20.532Z,2.15
2022-09-12T19:11:49.977Z,1.75
2022-09-12T19:14:26.035Z,2.22
2022-09-12T19:16:53.371Z,2.58
2022-09-12T19:19:20.921Z,2.38
2022-09-12T19:21:47.510Z,1.67
2022-09-12T19:24:14.658Z,2.90
2022-09-12T19:26:43.527Z,2.47
2022-09-12T19:29:14.620Z,2.05
2022-09-12T19:31:41.145Z,2.50
2022-09-12T19:34:07.732Z,2.00
2022-09-12T19:36:46.346Z,3.15
2022-09-12T19:39:14.571Z,2.33
2022-09-12T19:41:43.494Z,2.08
2022-09-12T19:44:09.986Z,2.42
2022-09-12T19:46:38.984Z,2.35
2022-09-12T19:49:09.192Z,1.98
2022-09-12T19:51:37.951Z,2.28
2022-09-12T19:54:04.465Z,2.35
2022-09-12T19:56:33.415Z,2.45
2022-09-12T19:59:00.098Z,2.40
2022-09-12T20:01:29.379Z,2.20
2022-09-12T20:03:57.696Z,2.08
2022-09-12T20:06:24.996Z,2.90
2022-09-12T20:08:54.148Z,2.28
2022-09-12T20:11:26.225Z,2.13
2022-09-12T20:13:53.099Z,2.35
2022-09-12T20:16:24.235Z,2.08
2022-09-12T20:18:59.384Z,2.50
2022-09-12T20:21:31.440Z,2.55
2022-09-12T20:24:10.129Z,2.90
2022-09-12T20:26:37.274Z,2.67
2022-09-12T20:29:05.738Z,2.67
2022-09-12T20:31:33.547Z,2.40
2022-09-12T20:34:00.319Z,2.78
2022-09-12T20:36:27.021Z,2.38
2022-09-12T20:39:01.398Z,2.10
2022-09-12T20:41:32.846Z,2.10
2022-09-12T20:43:59.397Z,2.17
2022-09-12T20:46:31.406Z,2.45
2022-09-12T20:49:00.333Z,2.72
2022-09-12T20:51:27.226Z,2.55
2022-09-12T20:53:54.814Z,3.25
2022-09-12T20:56:24.369Z,2.50
2022-09-12T20:58:51.054Z,2.70
2022-09-12T21:01:17.585Z,1.63
2022-09-12T21:03:44.866Z,2.22
2022-09-12T21:06:14.668Z,2.42
2022-09-12T21:08:41.219Z,2.30
2022-09-12T21:11:10.256Z,1.80
2022-09-12T21:13:39.525Z,2.80
2022-09-12T21:16:13.578Z,2.80
2022-09-12T21:18:43.000Z,3.17
2022-09-12T21:21:11.481Z,2.75
2022-09-12T21:23:40.396Z,2.80
2022-09-12T21:26:07.560Z,1.92
2022-09-12T21:28:34.445Z,2.60
2022-09-12T21:31:01.181Z,2.78
2022-09-12T21:33:28.062Z,2.05
2022-09-12T21:35:55.010Z,2.78
2022-09-12T21:38:23.870Z,2.85
2022-09-12T21:40:50.314Z,2.55
2022-09-12T21:43:16.757Z,2.33
2022-09-12T21:45:45.292Z,3.28
2022-09-12T21:48:16.305Z,2.33
2022-09-12T21:50:42.787Z,2.97
2022-09-12T21:53:11.758Z,2.97
2022-09-12T21:55:43.125Z,2.97
2022-09-12T21:58:10.532Z,2.53
2022-09-12T22:00:41.311Z,2.42
2022-09-12T22:03:10.315Z,2.80
2022-09-12T22:05:40.216Z,2.35
2022-09-12T22:08:11.553Z,2.33
2022-09-12T22:10:41.665Z,2.63
2022-09-12T22:13:11.153Z,2.58
2022-09-12T22:15:40.669Z,2.35
2022-09-12T22:18:10.648Z,2.90
2022-09-12T22:20:39.735Z,2.45
2022-09-12T22:23:31.019Z,2.35
2022-09-12T22:25:58.889Z,1.95
2022-09-12T22:28:25.486Z,2.40
2022-09-12T22:30:54.156Z,1.85
2022-09-12T22:33:21.052Z,2.00
2022-09-12T22:35:48.279Z,2.10
2022-09-12T22:38:14.709Z,2.40
2022-09-12T22:40:43.883Z,2.60
2022-09-12T22:43:10.714Z,2.65
2022-09-12T22:45:40.646Z,2.25
2022-09-12T22:48:09.569Z,1.90
2022-09-12T22:50:38.391Z,2.47
2022-09-12T22:53:07.134Z,2.35
2022-09-12T22:55:33.605Z,2.30
2022-09-12T22:58:00.125Z,2.33
2022-09-12T23:00:29.697Z,2.38
2022-09-12T23:02:58.802Z,2.65
2022-09-12T23:05:25.281Z,2.70
2022-09-12T23:07:55.513Z,2.38
2022-09-12T23:10:27.086Z,2.60
2022-09-12T23:12:54.857Z,2.50
2022-09-12T23:15:21.485Z,1.77
2022-09-12T23:17:48.333Z,2.38
2022-09-12T23:20:14.784Z,2.67
2022-09-12T23:22:45.692Z,2.20
2022-09-12T23:25:12.117Z,2.60
2022-09-12T23:27:40.011Z,2.53
2022-09-12T23:30:09.104Z,2.20
2022-09-12T23:32:36.593Z,2.55
2022-09-12T23:35:03.509Z,2.83
2022-09-12T23:37:30.132Z,2.85
2022-09-12T23:39:58.680Z,2.90
2022-09-12T23:42:27.496Z,2.92
2022-09-12T23:44:53.982Z,2.60
2022-09-12T23:47:20.420Z,2.67
2022-09-12T23:49:49.262Z,3.13
2022-09-12T23:52:15.713Z,2.83
2022-09-12T23:54:44.638Z,2.55
2022-09-12T23:57:15.470Z,2.70
2022-09-12T23:59:44.231Z,3.40
